PWSweather.com
Personal Weather Stations
Station Observations
KB2SBX
Sugarloaf, Sugarloaf, PA 18249

SugarloafSugarloaf, PA 18249

Lat: 41.0126685, Lon: -76.1082041

Elevation: 1030

Station Type: WS-2080

http://sugarloafpaweather.webng.com/weather.shtml

High Low Average
Temperature 52.9°F11.6°C 47.5°F8.6°C 50.2°F10.1°C
Dew Point 52.7°F11.5°C 47.2°F8.4°C 49.9°F9.9°C
Winds 2.2 mph 3.5 kmh Calm Calm Calm NECalm NE
Wind Gusts 6.9 mph11.1 kmh -- 2.0 mph3.2 kmh
Humidity 100% 93% 99%
Pressure 29.59 in1002.0 mb 29.46 in997.6 mb -
Precipitation 0.40 in10.2 mm - -
Hour Temp Dew Point Humidity Winds Wind Gusts Pressure Precip Precip Rate Daily Precip Total
12:00 AM 50.4°F10.2°C 47.8°F8.8°C 91% Calm Calm 3.8 mph6.1 kmh 29.58 in1001.7 mb 0.00 in0.0 mm 0.00 in0.0 mm 0.00 in0.0 mm
12:10 AM 50.4°F10.2°C 47.8°F8.8°C 91% Calm Calm 1.6 mph2.6 kmh 29.59 in1002.0 mb 0.00 in0.0 mm 0.00 in0.0 mm 0.00 in0.0 mm
12:20 AM 50.4°F10.2°C 48.1°F8.9°C 92% Calm Calm 1.6 mph2.6 kmh 29.59 in1002.0 mb 0.00 in0.0 mm 0.00 in0.0 mm 0.00 in0.0 mm
12:30 AM 50.4°F10.2°C 48.1°F8.9°C 92% Calm Calm 1.6 mph2.6 kmh 29.59 in1002.0 mb 0.00 in0.0 mm 0.00 in0.0 mm 0.00 in0.0 mm
12:40 AM 50.4°F10.2°C 48.1°F8.9°C 92% Calm Calm 0.7 mph1.1 kmh 29.59 in1002.0 mb 0.01 in0.3 mm 0.06 in1.5 mm 0.01 in0.3 mm
12:50 AM 50.2°F10.1°C 48.2°F9.0°C 93% Calm Calm 3.1 mph5.0 kmh 29.59 in1002.0 mb 0.01 in0.3 mm 0.00 in0.0 mm 0.01 in0.3 mm
01:00 AM 50.0°F10.0°C 48.1°F8.9°C 93% Calm Calm 0.7 mph1.1 kmh 29.59 in1002.0 mb 0.01 in0.3 mm 0.00 in0.0 mm 0.01 in0.3 mm
01:10 AM 49.8°F9.9°C 48.4°F9.1°C 95% Calm Calm 0.7 mph1.1 kmh 29.58 in1001.7 mb 0.02 in0.5 mm 0.06 in1.5 mm 0.02 in0.5 mm
01:20 AM 49.8°F9.9°C 48.4°F9.1°C 95% Calm Calm 1.6 mph2.6 kmh 29.58 in1001.7 mb 0.04 in1.0 mm 0.12 in3.0 mm 0.04 in1.0 mm
01:30 AM 49.5°F9.7°C 48.4°F9.1°C 96% Calm Calm 4.5 mph7.2 kmh 29.57 in1001.4 mb 0.05 in1.3 mm 0.06 in1.5 mm 0.05 in1.3 mm
01:40 AM 49.1°F9.5°C 48.0°F8.9°C 96% Calm Calm 3.8 mph6.1 kmh 29.56 in1001.0 mb 0.06 in1.5 mm 0.06 in1.5 mm 0.06 in1.5 mm
01:50 AM 48.9°F9.4°C 47.8°F8.8°C 96% Calm Calm 2.2 mph3.5 kmh 29.56 in1001.0 mb 0.06 in1.5 mm 0.00 in0.0 mm 0.07 in1.8 mm
02:00 AM 48.9°F9.4°C 48.1°F8.9°C 97% 1.6 mph SSW2.6 kmh SSW 3.1 mph5.0 kmh 29.56 in1001.0 mb 0.07 in1.8 mm 0.01 in0.3 mm 0.08 in2.0 mm
02:10 AM 48.6°F9.2°C 47.8°F8.8°C 97% 0.7 mph NNW1.1 kmh NNW 3.1 mph5.0 kmh 29.55 in1000.7 mb 0.07 in1.8 mm 0.00 in0.0 mm 0.09 in2.3 mm
02:20 AM 48.4°F9.1°C 47.6°F8.7°C 97% Calm Calm 6.9 mph11.1 kmh 29.55 in1000.7 mb 0.07 in1.8 mm 0.00 in0.0 mm 0.11 in2.8 mm
02:30 AM 48.4°F9.1°C 47.6°F8.7°C 97% Calm Calm 1.6 mph2.6 kmh 29.55 in1000.7 mb 0.07 in1.8 mm 0.00 in0.0 mm 0.12 in3.0 mm
02:40 AM 48.4°F9.1°C 48.4°F9.1°C 100% 0.7 mph SE1.1 kmh SE 1.6 mph2.6 kmh 29.55 in1000.7 mb 0.08 in2.0 mm 0.06 in1.5 mm 0.14 in3.6 mm
02:50 AM 48.2°F9.0°C 48.2°F9.0°C 100% Calm Calm 2.2 mph3.5 kmh 29.54 in1000.3 mb 0.09 in2.3 mm 0.06 in1.5 mm 0.15 in3.8 mm
03:00 AM 48.2°F9.0°C 48.2°F9.0°C 100% 0.7 mph WSW1.1 kmh WSW 1.6 mph2.6 kmh 29.54 in1000.3 mb 0.07 in1.8 mm 0.00 in0.0 mm 0.15 in3.8 mm
03:10 AM 48.2°F9.0°C 47.9°F8.8°C 99% Calm Calm 2.2 mph3.5 kmh 29.53 in1000.0 mb 0.06 in1.5 mm 0.00 in0.0 mm 0.15 in3.8 mm
03:20 AM 48.2°F9.0°C 47.9°F8.8°C 99% Calm Calm 0.7 mph1.1 kmh 29.54 in1000.3 mb 0.05 in1.3 mm 0.00 in0.0 mm 0.16 in4.1 mm
03:30 AM 48.2°F9.0°C 47.9°F8.8°C 99% Calm Calm 0.7 mph1.1 kmh 29.53 in1000.0 mb 0.03 in0.8 mm 0.00 in0.0 mm 0.16 in4.1 mm
03:40 AM 48.2°F9.0°C 47.9°F8.8°C 99% Calm Calm 1.6 mph2.6 kmh 29.53 in1000.0 mb 0.02 in0.5 mm 0.00 in0.0 mm 0.16 in4.1 mm
03:50 AM 48.0°F8.9°C 47.8°F8.8°C 99% Calm Calm 0.7 mph1.1 kmh 29.52 in999.7 mb 0.01 in0.3 mm 0.00 in0.0 mm 0.16 in4.1 mm
04:00 AM 48.0°F8.9°C 47.8°F8.8°C 99% Calm Calm 1.6 mph2.6 kmh 29.52 in999.7 mb 0.01 in0.3 mm 0.00 in0.0 mm 0.16 in4.1 mm
04:10 AM 48.0°F8.9°C 47.8°F8.8°C 99% Calm Calm 0.7 mph1.1 kmh 29.52 in999.7 mb 0.01 in0.3 mm 0.00 in0.0 mm 0.16 in4.1 mm
04:20 AM 48.2°F9.0°C 47.9°F8.8°C 99% Calm Calm 1.6 mph2.6 kmh 29.53 in1000.0 mb 0.00 in0.0 mm 0.00 in0.0 mm 0.16 in4.1 mm
04:30 AM 48.2°F9.0°C 47.9°F8.8°C 99% Calm Calm 2.2 mph3.5 kmh 29.54 in1000.3 mb 0.00 in0.0 mm 0.00 in0.0 mm 0.16 in4.1 mm
04:40 AM 48.0°F8.9°C 47.8°F8.8°C 99% 0.7 mph NW1.1 kmh NW 2.2 mph3.5 kmh 29.54 in1000.3 mb 0.01 in0.3 mm 0.06 in1.5 mm 0.16 in4.1 mm
04:50 AM 48.0°F8.9°C 47.8°F8.8°C 99% Calm Calm 1.6 mph2.6 kmh 29.53 in1000.0 mb 0.04 in1.0 mm 0.18 in4.6 mm 0.19 in4.8 mm
05:00 AM 48.0°F8.9°C 47.8°F8.8°C 99% Calm Calm 1.6 mph2.6 kmh 29.54 in1000.3 mb 0.05 in1.3 mm 0.01 in0.3 mm 0.20 in5.1 mm
05:10 AM 47.8°F8.8°C 47.6°F8.7°C 99% 0.7 mph NNW1.1 kmh NNW 2.2 mph3.5 kmh 29.53 in1000.0 mb 0.05 in1.3 mm 0.00 in0.0 mm 0.20 in5.1 mm
05:20 AM 47.7°F8.7°C 47.4°F8.6°C 99% Calm Calm 4.5 mph7.2 kmh 29.53 in1000.0 mb 0.06 in1.5 mm 0.06 in1.5 mm 0.21 in5.3 mm
05:30 AM 47.7°F8.7°C 47.4°F8.6°C 99% Calm Calm 3.8 mph6.1 kmh 29.53 in1000.0 mb 0.06 in1.5 mm 0.00 in0.0 mm 0.21 in5.3 mm
05:40 AM 47.5°F8.6°C 47.2°F8.4°C 99% Calm Calm 2.2 mph3.5 kmh 29.53 in1000.0 mb 0.05 in1.3 mm 0.00 in0.0 mm 0.21 in5.3 mm
05:50 AM 47.5°F8.6°C 47.2°F8.4°C 99% Calm Calm 1.6 mph2.6 kmh 29.53 in1000.0 mb 0.02 in0.5 mm 0.00 in0.0 mm 0.21 in5.3 mm
06:00 AM 47.5°F8.6°C 47.2°F8.4°C 99% Calm Calm 3.1 mph5.0 kmh 29.54 in1000.3 mb 0.02 in0.5 mm 0.00 in0.0 mm 0.22 in5.6 mm
06:10 AM 47.5°F8.6°C 47.2°F8.4°C 99% Calm Calm 0.7 mph1.1 kmh 29.54 in1000.3 mb 0.05 in1.3 mm 0.18 in4.6 mm 0.25 in6.4 mm
06:20 AM 47.5°F8.6°C 47.2°F8.4°C 99% Calm Calm 3.1 mph5.0 kmh 29.53 in1000.0 mb 0.09 in2.3 mm 0.24 in6.1 mm 0.30 in7.6 mm
06:30 AM 47.5°F8.6°C 47.2°F8.4°C 99% Calm Calm 1.6 mph2.6 kmh 29.53 in1000.0 mb 0.11 in2.8 mm 0.12 in3.0 mm 0.32 in8.1 mm
06:40 AM 47.5°F8.6°C 47.2°F8.4°C 99% Calm Calm 1.6 mph2.6 kmh 29.53 in1000.0 mb 0.13 in3.3 mm 0.12 in3.0 mm 0.34 in8.6 mm
06:50 AM 47.5°F8.6°C 47.2°F8.4°C 99% Calm Calm 1.6 mph2.6 kmh 29.53 in1000.0 mb 0.14 in3.6 mm 0.06 in1.5 mm 0.36 in9.1 mm
07:00 AM 47.7°F8.7°C 47.4°F8.6°C 99% Calm Calm 0.7 mph1.1 kmh 29.53 in1000.0 mb 0.13 in3.3 mm 0.00 in0.0 mm 0.36 in9.1 mm
07:10 AM 47.7°F8.7°C 47.4°F8.6°C 99% Calm Calm -- 29.53 in1000.0 mb 0.10 in2.5 mm 0.00 in0.0 mm 0.36 in9.1 mm
07:20 AM 47.8°F8.8°C 47.6°F8.7°C 99% Calm Calm -- 29.53 in1000.0 mb 0.06 in1.5 mm 0.00 in0.0 mm 0.36 in9.1 mm
07:30 AM 47.7°F8.7°C 47.4°F8.6°C 99% 0.7 mph WNW1.1 kmh WNW 3.8 mph6.1 kmh 29.53 in1000.0 mb 0.06 in1.5 mm 0.00 in0.0 mm 0.37 in9.4 mm
07:40 AM 47.5°F8.6°C 47.2°F8.4°C 99% 0.7 mph SW1.1 kmh SW 3.1 mph5.0 kmh 29.53 in1000.0 mb 0.04 in1.0 mm 0.00 in0.0 mm 0.38 in9.7 mm
07:50 AM 47.5°F8.6°C 47.2°F8.4°C 99% 1.6 mph E2.6 kmh E 3.1 mph5.0 kmh 29.53 in1000.0 mb 0.03 in0.8 mm 0.00 in0.0 mm 0.39 in9.9 mm
08:00 AM 47.7°F8.7°C 47.4°F8.6°C 99% Calm Calm 2.2 mph3.5 kmh 29.53 in1000.0 mb 0.03 in0.8 mm 0.00 in0.0 mm 0.39 in9.9 mm
08:10 AM 48.0°F8.9°C 47.8°F8.8°C 99% Calm Calm 0.7 mph1.1 kmh 29.53 in1000.0 mb 0.03 in0.8 mm 0.00 in0.0 mm 0.39 in9.9 mm
08:20 AM 47.8°F8.8°C 47.6°F8.7°C 99% Calm Calm 4.5 mph7.2 kmh 29.53 in1000.0 mb 0.03 in0.8 mm 0.00 in0.0 mm 0.39 in9.9 mm
08:30 AM 47.8°F8.8°C 47.6°F8.7°C 99% Calm Calm 2.2 mph3.5 kmh 29.53 in1000.0 mb 0.01 in0.3 mm 0.00 in0.0 mm 0.39 in9.9 mm
08:40 AM 47.8°F8.8°C 47.6°F8.7°C 99% Calm Calm 2.2 mph3.5 kmh 29.53 in1000.0 mb 0.01 in0.3 mm 0.00 in0.0 mm 0.39 in9.9 mm
08:50 AM 47.8°F8.8°C 47.6°F8.7°C 99% Calm Calm 1.6 mph2.6 kmh 29.53 in1000.0 mb 0.00 in0.0 mm 0.00 in0.0 mm 0.39 in9.9 mm
09:00 AM 47.8°F8.8°C 47.6°F8.7°C 99% Calm Calm 1.6 mph2.6 kmh 29.53 in1000.0 mb 0.00 in0.0 mm 0.00 in0.0 mm 0.39 in9.9 mm
09:10 AM 47.8°F8.8°C 47.6°F8.7°C 99% Calm Calm 2.2 mph3.5 kmh 29.52 in999.7 mb 0.01 in0.3 mm 0.06 in1.5 mm 0.39 in9.9 mm
09:20 AM 48.0°F8.9°C 47.8°F8.8°C 99% Calm Calm 3.1 mph5.0 kmh 29.52 in999.7 mb 0.01 in0.3 mm 0.00 in0.0 mm 0.40 in10.2 mm
09:30 AM 48.2°F9.0°C 47.9°F8.8°C 99% Calm Calm 2.2 mph3.5 kmh 29.52 in999.7 mb 0.01 in0.3 mm 0.00 in0.0 mm 0.40 in10.2 mm
09:40 AM 48.4°F9.1°C 48.1°F8.9°C 99% 1.6 mph N2.6 kmh N 3.1 mph5.0 kmh 29.52 in999.7 mb 0.01 in0.3 mm 0.00 in0.0 mm 0.40 in10.2 mm
09:50 AM 48.4°F9.1°C 48.1°F8.9°C 99% 1.6 mph NNE2.6 kmh NNE 3.1 mph5.0 kmh 29.52 in999.7 mb 0.01 in0.3 mm 0.00 in0.0 mm 0.40 in10.2 mm
10:00 AM 48.6°F9.2°C 48.3°F9.1°C 99% Calm Calm 2.2 mph3.5 kmh 29.52 in999.7 mb 0.01 in0.3 mm 0.00 in0.0 mm 0.40 in10.2 mm
10:10 AM 48.7°F9.3°C 48.5°F9.2°C 99% 1.6 mph N2.6 kmh N 2.2 mph3.5 kmh 29.51 in999.3 mb 0.01 in0.3 mm 0.00 in0.0 mm 0.40 in10.2 mm
10:20 AM 48.7°F9.3°C 48.5°F9.2°C 99% 1.6 mph NNW2.6 kmh NNW 3.8 mph6.1 kmh 29.52 in999.7 mb 0.00 in0.0 mm 0.00 in0.0 mm 0.40 in10.2 mm
10:30 AM 49.1°F9.5°C 48.8°F9.3°C 99% Calm Calm 3.1 mph5.0 kmh 29.52 in999.7 mb 0.00 in0.0 mm 0.00 in0.0 mm 0.40 in10.2 mm
10:40 AM 49.8°F9.9°C 49.6°F9.8°C 99% Calm Calm 1.6 mph2.6 kmh 29.53 in1000.0 mb 0.00 in0.0 mm 0.00 in0.0 mm 0.40 in10.2 mm
10:50 AM 50.0°F10.0°C 49.7°F9.8°C 99% 1.6 mph NW2.6 kmh NW 3.8 mph6.1 kmh 29.52 in999.7 mb 0.00 in0.0 mm 0.00 in0.0 mm 0.40 in10.2 mm
11:00 AM 49.8°F9.9°C 49.6°F9.8°C 99% 0.7 mph N1.1 kmh N 3.8 mph6.1 kmh 29.52 in999.7 mb 0.00 in0.0 mm 0.00 in0.0 mm 0.40 in10.2 mm
11:10 AM 49.8°F9.9°C 49.6°F9.8°C 99% Calm Calm 1.6 mph2.6 kmh 29.52 in999.7 mb 0.00 in0.0 mm 0.00 in0.0 mm 0.40 in10.2 mm
11:20 AM 50.2°F10.1°C 49.9°F9.9°C 99% 1.6 mph NW2.6 kmh NW 3.8 mph6.1 kmh 29.52 in999.7 mb 0.00 in0.0 mm 0.00 in0.0 mm 0.40 in10.2 mm
11:30 AM 50.4°F10.2°C 50.1°F10.1°C 99% Calm Calm 2.2 mph3.5 kmh 29.52 in999.7 mb 0.00 in0.0 mm 0.00 in0.0 mm 0.40 in10.2 mm
11:40 AM 50.5°F10.3°C 50.3°F10.2°C 99% Calm Calm 2.2 mph3.5 kmh 29.52 in999.7 mb 0.00 in0.0 mm 0.00 in0.0 mm 0.40 in10.2 mm
11:50 AM 51.1°F10.6°C 50.8°F10.4°C 99% 0.7 mph W1.1 kmh W 2.2 mph3.5 kmh 29.52 in999.7 mb 0.00 in0.0 mm 0.00 in0.0 mm 0.40 in10.2 mm
12:00 PM 51.1°F10.6°C 50.8°F10.4°C 99% 0.7 mph NE1.1 kmh NE 2.2 mph3.5 kmh 29.51 in999.3 mb 0.00 in0.0 mm 0.00 in0.0 mm 0.40 in10.2 mm
12:10 PM 51.3°F10.7°C 51.0°F10.6°C 99% 0.7 mph SE1.1 kmh SE 2.2 mph3.5 kmh 29.51 in999.3 mb 0.00 in0.0 mm 0.00 in0.0 mm 0.40 in10.2 mm
12:20 PM 51.6°F10.9°C 51.4°F10.8°C 99% 1.6 mph NNE2.6 kmh NNE 3.1 mph5.0 kmh 29.50 in999.0 mb 0.00 in0.0 mm 0.00 in0.0 mm 0.40 in10.2 mm
12:30 PM 51.8°F11.0°C 51.8°F11.0°C 100% Calm Calm 3.1 mph5.0 kmh 29.50 in999.0 mb 0.00 in0.0 mm 0.00 in0.0 mm 0.40 in10.2 mm
12:40 PM 52.2°F11.2°C 52.2°F11.2°C 100% 0.7 mph NNW1.1 kmh NNW 2.2 mph3.5 kmh 29.50 in999.0 mb 0.00 in0.0 mm 0.00 in0.0 mm 0.40 in10.2 mm
12:50 PM 52.3°F11.3°C 52.3°F11.3°C 100% Calm Calm 2.2 mph3.5 kmh 29.50 in999.0 mb 0.00 in0.0 mm 0.00 in0.0 mm 0.40 in10.2 mm
01:00 PM 52.0°F11.1°C 52.0°F11.1°C 100% 2.2 mph N3.5 kmh N 4.5 mph7.2 kmh 29.49 in998.6 mb 0.00 in0.0 mm 0.00 in0.0 mm 0.40 in10.2 mm
01:10 PM 51.4°F10.8°C 51.2°F10.7°C 99% 1.6 mph NNW2.6 kmh NNW 3.1 mph5.0 kmh 29.49 in998.6 mb 0.00 in0.0 mm 0.00 in0.0 mm 0.40 in10.2 mm
01:20 PM 51.4°F10.8°C 51.2°F10.7°C 99% 1.6 mph NW2.6 kmh NW 3.1 mph5.0 kmh 29.49 in998.6 mb 0.00 in0.0 mm 0.00 in0.0 mm 0.40 in10.2 mm
01:30 PM 51.3°F10.7°C 51.3°F10.7°C 100% 1.6 mph NNW2.6 kmh NNW 3.1 mph5.0 kmh 29.49 in998.6 mb 0.00 in0.0 mm 0.00 in0.0 mm 0.40 in10.2 mm
01:40 PM 51.4°F10.8°C 51.4°F10.8°C 100% Calm Calm 3.1 mph5.0 kmh 29.49 in998.6 mb 0.00 in0.0 mm 0.00 in0.0 mm 0.40 in10.2 mm
01:50 PM 51.8°F11.0°C 51.8°F11.0°C 100% Calm Calm 2.2 mph3.5 kmh 29.49 in998.6 mb 0.00 in0.0 mm 0.00 in0.0 mm 0.40 in10.2 mm
02:00 PM 52.2°F11.2°C 52.2°F11.2°C 100% Calm Calm 1.6 mph2.6 kmh 29.49 in998.6 mb 0.00 in0.0 mm 0.00 in0.0 mm 0.40 in10.2 mm
02:10 PM 52.3°F11.3°C 52.3°F11.3°C 100% Calm Calm 0.7 mph1.1 kmh 29.49 in998.6 mb 0.00 in0.0 mm 0.00 in0.0 mm 0.40 in10.2 mm
02:20 PM 52.7°F11.5°C 51.9°F11.1°C 97% Calm Calm 2.2 mph3.5 kmh 29.49 in998.6 mb 0.00 in0.0 mm 0.00 in0.0 mm 0.40 in10.2 mm
02:30 PM 52.7°F11.5°C 51.9°F11.1°C 97% Calm Calm 1.6 mph2.6 kmh 29.50 in999.0 mb 0.00 in0.0 mm 0.00 in0.0 mm 0.40 in10.2 mm
02:40 PM 52.9°F11.6°C 52.1°F11.2°C 97% Calm Calm 0.7 mph1.1 kmh 29.49 in998.6 mb 0.00 in0.0 mm 0.00 in0.0 mm 0.40 in10.2 mm
02:50 PM 52.7°F11.5°C 51.9°F11.1°C 97% Calm Calm 1.6 mph2.6 kmh 29.49 in998.6 mb 0.00 in0.0 mm 0.00 in0.0 mm 0.40 in10.2 mm
03:00 PM 52.7°F11.5°C 51.9°F11.1°C 97% Calm Calm 0.7 mph1.1 kmh 29.49 in998.6 mb 0.00 in0.0 mm 0.00 in0.0 mm 0.40 in10.2 mm
03:10 PM 52.7°F11.5°C 51.9°F11.1°C 97% Calm Calm 1.6 mph2.6 kmh 29.48 in998.3 mb 0.00 in0.0 mm 0.00 in0.0 mm 0.40 in10.2 mm
03:20 PM 52.7°F11.5°C 51.9°F11.1°C 97% Calm Calm 0.7 mph1.1 kmh 29.48 in998.3 mb 0.00 in0.0 mm 0.00 in0.0 mm 0.40 in10.2 mm
03:30 PM 52.7°F11.5°C 51.9°F11.1°C 97% Calm Calm 0.7 mph1.1 kmh 29.48 in998.3 mb 0.00 in0.0 mm 0.00 in0.0 mm 0.40 in10.2 mm
03:40 PM 52.5°F11.4°C 51.7°F10.9°C 97% Calm Calm 1.6 mph2.6 kmh 29.48 in998.3 mb 0.00 in0.0 mm 0.00 in0.0 mm 0.40 in10.2 mm
03:50 PM 52.5°F11.4°C 51.7°F10.9°C 97% Calm Calm 1.6 mph2.6 kmh 29.48 in998.3 mb 0.00 in0.0 mm 0.00 in0.0 mm 0.40 in10.2 mm
04:00 PM 52.5°F11.4°C 52.5°F11.4°C 100% Calm Calm 1.6 mph2.6 kmh 29.48 in998.3 mb 0.00 in0.0 mm 0.00 in0.0 mm 0.40 in10.2 mm
04:10 PM 52.3°F11.3°C 52.3°F11.3°C 100% Calm Calm 1.6 mph2.6 kmh 29.48 in998.3 mb 0.00 in0.0 mm 0.00 in0.0 mm 0.40 in10.2 mm
04:20 PM 52.2°F11.2°C 52.2°F11.2°C 100% Calm Calm 2.2 mph3.5 kmh 29.48 in998.3 mb 0.00 in0.0 mm 0.00 in0.0 mm 0.40 in10.2 mm
04:30 PM 52.0°F11.1°C 52.0°F11.1°C 100% Calm Calm 0.7 mph1.1 kmh 29.48 in998.3 mb 0.00 in0.0 mm 0.00 in0.0 mm 0.40 in10.2 mm
04:40 PM 52.2°F11.2°C 52.2°F11.2°C 100% Calm Calm 1.6 mph2.6 kmh 29.48 in998.3 mb 0.00 in0.0 mm 0.00 in0.0 mm 0.40 in10.2 mm
04:50 PM 52.0°F11.1°C 52.0°F11.1°C 100% Calm Calm 1.6 mph2.6 kmh 29.48 in998.3 mb 0.00 in0.0 mm 0.00 in0.0 mm 0.40 in10.2 mm
05:00 PM 51.8°F11.0°C 51.8°F11.0°C 100% Calm Calm 2.2 mph3.5 kmh 29.48 in998.3 mb 0.00 in0.0 mm 0.00 in0.0 mm 0.40 in10.2 mm
05:10 PM 51.8°F11.0°C 51.8°F11.0°C 100% 0.7 mph NE1.1 kmh NE 2.2 mph3.5 kmh 29.47 in998.0 mb 0.00 in0.0 mm 0.00 in0.0 mm 0.40 in10.2 mm
05:20 PM 51.8°F11.0°C 51.8°F11.0°C 100% Calm Calm 1.6 mph2.6 kmh 29.48 in998.3 mb 0.00 in0.0 mm 0.00 in0.0 mm 0.40 in10.2 mm
05:30 PM 52.0°F11.1°C 52.0°F11.1°C 100% Calm Calm 1.6 mph2.6 kmh 29.47 in998.0 mb 0.00 in0.0 mm 0.00 in0.0 mm 0.40 in10.2 mm
05:40 PM 52.2°F11.2°C 52.2°F11.2°C 100% 0.7 mph SE1.1 kmh SE 1.6 mph2.6 kmh 29.47 in998.0 mb 0.00 in0.0 mm 0.00 in0.0 mm 0.40 in10.2 mm
05:50 PM 52.2°F11.2°C 52.2°F11.2°C 100% Calm Calm 2.2 mph3.5 kmh 29.47 in998.0 mb 0.00 in0.0 mm 0.00 in0.0 mm 0.40 in10.2 mm
06:00 PM 52.2°F11.2°C 52.2°F11.2°C 100% Calm Calm 1.6 mph2.6 kmh 29.47 in998.0 mb 0.00 in0.0 mm 0.00 in0.0 mm 0.40 in10.2 mm
06:10 PM 52.5°F11.4°C 52.5°F11.4°C 100% Calm Calm 1.6 mph2.6 kmh 29.48 in998.3 mb 0.00 in0.0 mm 0.00 in0.0 mm 0.40 in10.2 mm
06:20 PM 52.3°F11.3°C 52.3°F11.3°C 100% 0.7 mph NNW1.1 kmh NNW 1.6 mph2.6 kmh 29.48 in998.3 mb 0.00 in0.0 mm 0.00 in0.0 mm 0.40 in10.2 mm
06:30 PM 52.3°F11.3°C 52.3°F11.3°C 100% Calm Calm 2.2 mph3.5 kmh 29.48 in998.3 mb 0.00 in0.0 mm 0.00 in0.0 mm 0.40 in10.2 mm
06:40 PM 52.3°F11.3°C 52.3°F11.3°C 100% Calm Calm 0.7 mph1.1 kmh 29.48 in998.3 mb 0.00 in0.0 mm 0.00 in0.0 mm 0.40 in10.2 mm
06:50 PM 52.7°F11.5°C 52.7°F11.5°C 100% Calm Calm 1.6 mph2.6 kmh 29.48 in998.3 mb 0.00 in0.0 mm 0.00 in0.0 mm 0.40 in10.2 mm
07:00 PM 52.5°F11.4°C 52.5°F11.4°C 100% Calm Calm 0.7 mph1.1 kmh 29.48 in998.3 mb 0.00 in0.0 mm 0.00 in0.0 mm 0.40 in10.2 mm
07:10 PM 52.5°F11.4°C 52.5°F11.4°C 100% Calm Calm 1.6 mph2.6 kmh 29.47 in998.0 mb 0.00 in0.0 mm 0.00 in0.0 mm 0.40 in10.2 mm
07:20 PM 52.5°F11.4°C 52.5°F11.4°C 100% 0.7 mph SE1.1 kmh SE 1.6 mph2.6 kmh 29.47 in998.0 mb 0.00 in0.0 mm 0.00 in0.0 mm 0.40 in10.2 mm
07:30 PM 52.5°F11.4°C 52.5°F11.4°C 100% Calm Calm 2.2 mph3.5 kmh 29.47 in998.0 mb 0.00 in0.0 mm 0.00 in0.0 mm 0.40 in10.2 mm
07:40 PM 52.5°F11.4°C 52.5°F11.4°C 100% Calm Calm 1.6 mph2.6 kmh 29.47 in998.0 mb 0.00 in0.0 mm 0.00 in0.0 mm 0.40 in10.2 mm
07:50 PM 52.5°F11.4°C 52.5°F11.4°C 100% Calm Calm 0.7 mph1.1 kmh 29.48 in998.3 mb 0.00 in0.0 mm 0.00 in0.0 mm 0.40 in10.2 mm
08:00 PM 52.3°F11.3°C 52.3°F11.3°C 100% Calm Calm 0.7 mph1.1 kmh 29.48 in998.3 mb 0.00 in0.0 mm 0.00 in0.0 mm 0.40 in10.2 mm
08:10 PM 52.2°F11.2°C 52.2°F11.2°C 100% Calm Calm 0.7 mph1.1 kmh 29.48 in998.3 mb 0.00 in0.0 mm 0.00 in0.0 mm 0.40 in10.2 mm
08:20 PM 52.2°F11.2°C 52.2°F11.2°C 100% Calm Calm -- 29.49 in998.6 mb 0.00 in0.0 mm 0.00 in0.0 mm 0.40 in10.2 mm
08:30 PM 52.2°F11.2°C 52.2°F11.2°C 100% Calm Calm -- 29.48 in998.3 mb 0.00 in0.0 mm 0.00 in0.0 mm 0.40 in10.2 mm
08:40 PM 51.8°F11.0°C 51.8°F11.0°C 100% Calm Calm 0.7 mph1.1 kmh 29.47 in998.0 mb 0.00 in0.0 mm 0.00 in0.0 mm 0.40 in10.2 mm
08:50 PM 51.3°F10.7°C 51.0°F10.6°C 99% Calm Calm 0.7 mph1.1 kmh 29.48 in998.3 mb 0.00 in0.0 mm 0.00 in0.0 mm 0.40 in10.2 mm
09:00 PM 51.1°F10.6°C 50.8°F10.4°C 99% Calm Calm 0.7 mph1.1 kmh 29.48 in998.3 mb 0.00 in0.0 mm 0.00 in0.0 mm 0.40 in10.2 mm
09:10 PM 50.7°F10.4°C 50.5°F10.3°C 99% Calm Calm 0.7 mph1.1 kmh 29.50 in999.0 mb 0.00 in0.0 mm 0.00 in0.0 mm 0.40 in10.2 mm
09:20 PM 50.5°F10.3°C 50.3°F10.2°C 99% Calm Calm -- 29.49 in998.6 mb 0.00 in0.0 mm 0.00 in0.0 mm 0.40 in10.2 mm
09:30 PM 50.5°F10.3°C 50.3°F10.2°C 99% Calm Calm -- 29.50 in999.0 mb 0.00 in0.0 mm 0.00 in0.0 mm 0.40 in10.2 mm
09:40 PM 50.7°F10.4°C 50.5°F10.3°C 99% Calm Calm -- 29.49 in998.6 mb 0.00 in0.0 mm 0.00 in0.0 mm 0.40 in10.2 mm
09:50 PM 50.7°F10.4°C 50.5°F10.3°C 99% Calm Calm 0.7 mph1.1 kmh 29.48 in998.3 mb 0.00 in0.0 mm 0.00 in0.0 mm 0.40 in10.2 mm
10:00 PM 50.7°F10.4°C 50.5°F10.3°C 99% Calm Calm 0.7 mph1.1 kmh 29.48 in998.3 mb 0.00 in0.0 mm 0.00 in0.0 mm 0.40 in10.2 mm
10:10 PM 50.5°F10.3°C 50.3°F10.2°C 99% Calm Calm 0.7 mph1.1 kmh 29.48 in998.3 mb 0.00 in0.0 mm 0.00 in0.0 mm 0.40 in10.2 mm
10:20 PM 50.7°F10.4°C 50.5°F10.3°C 99% Calm Calm 0.7 mph1.1 kmh 29.47 in998.0 mb 0.00 in0.0 mm 0.00 in0.0 mm 0.40 in10.2 mm
10:30 PM 50.7°F10.4°C 50.5°F10.3°C 99% Calm Calm 1.6 mph2.6 kmh 29.48 in998.3 mb 0.00 in0.0 mm 0.00 in0.0 mm 0.40 in10.2 mm
10:40 PM 50.9°F10.5°C 50.6°F10.3°C 99% 0.7 mph SE1.1 kmh SE 1.6 mph2.6 kmh 29.49 in998.6 mb 0.00 in0.0 mm 0.00 in0.0 mm 0.40 in10.2 mm
10:50 PM 50.9°F10.5°C 50.6°F10.3°C 99% Calm Calm 1.6 mph2.6 kmh 29.48 in998.3 mb 0.00 in0.0 mm 0.00 in0.0 mm 0.40 in10.2 mm
11:00 PM 50.9°F10.5°C 50.6°F10.3°C 99% 0.7 mph NNE1.1 kmh NNE 1.6 mph2.6 kmh 29.46 in997.6 mb 0.00 in0.0 mm 0.00 in0.0 mm 0.40 in10.2 mm
11:10 PM 50.9°F10.5°C 50.6°F10.3°C 99% 0.7 mph N1.1 kmh N 2.2 mph3.5 kmh 29.46 in997.6 mb 0.00 in0.0 mm 0.00 in0.0 mm 0.40 in10.2 mm
11:20 PM 50.9°F10.5°C 50.6°F10.3°C 99% Calm Calm 1.6 mph2.6 kmh 29.46 in997.6 mb 0.00 in0.0 mm 0.00 in0.0 mm 0.40 in10.2 mm
11:30 PM 50.9°F10.5°C 50.6°F10.3°C 99% Calm Calm 0.7 mph1.1 kmh 29.46 in997.6 mb 0.00 in0.0 mm 0.00 in0.0 mm 0.40 in10.2 mm
11:40 PM 50.9°F10.5°C 50.6°F10.3°C 99% Calm Calm 0.7 mph1.1 kmh 29.46 in997.6 mb 0.00 in0.0 mm 0.00 in0.0 mm 0.40 in10.2 mm
11:50 PM 50.9°F10.5°C 50.6°F10.3°C 99% Calm Calm 0.7 mph1.1 kmh 29.47 in998.0 mb 0.00 in0.0 mm 0.00 in0.0 mm 0.40 in10.2 mm